sensor_id;sensor_type;location;lat;lon;timestamp;temperature;humidity
23721;DHT22;42950;52.134;5.578;2023-07-13T00:00:28;17.50;99.90
23721;DHT22;42950;52.134;5.578;2023-07-13T00:02:54;17.50;99.90
23721;DHT22;42950;52.134;5.578;2023-07-13T00:05:23;17.50;99.90
23721;DHT22;42950;52.134;5.578;2023-07-13T00:07:49;17.50;99.90
23721;DHT22;42950;52.134;5.578;2023-07-13T00:10:16;17.50;99.90
23721;DHT22;42950;52.134;5.578;2023-07-13T00:12:43;17.50;99.90
23721;DHT22;42950;52.134;5.578;2023-07-13T00:15:16;17.50;99.90
23721;DHT22;42950;52.134;5.578;2023-07-13T00:17:43;17.50;99.90
23721;DHT22;42950;52.134;5.578;2023-07-13T00:20:11;17.40;99.90
23721;DHT22;42950;52.134;5.578;2023-07-13T00:22:37;17.40;99.90
23721;DHT22;42950;52.134;5.578;2023-07-13T00:25:03;17.40;99.90
23721;DHT22;42950;52.134;5.578;2023-07-13T00:27:29;17.40;99.90
23721;DHT22;42950;52.134;5.578;2023-07-13T00:29:58;17.40;99.90
23721;DHT22;42950;52.134;5.578;2023-07-13T00:32:25;17.30;99.90
23721;DHT22;42950;52.134;5.578;2023-07-13T00:34:51;17.30;99.90
23721;DHT22;42950;52.134;5.578;2023-07-13T00:37:17;17.20;99.90
23721;DHT22;42950;52.134;5.578;2023-07-13T00:39:43;17.20;99.90
23721;DHT22;42950;52.134;5.578;2023-07-13T00:42:09;17.10;99.90
23721;DHT22;42950;52.134;5.578;2023-07-13T00:44:34;17.10;99.90
23721;DHT22;42950;52.134;5.578;2023-07-13T00:47:00;17.00;99.90
23721;DHT22;42950;52.134;5.578;2023-07-13T00:49:29;17.00;99.90
23721;DHT22;42950;52.134;5.578;2023-07-13T00:51:58;16.90;99.90
23721;DHT22;42950;52.134;5.578;2023-07-13T00:54:30;16.90;99.90
23721;DHT22;42950;52.134;5.578;2023-07-13T00:57:00;16.90;99.90
23721;DHT22;42950;52.134;5.578;2023-07-13T00:59:27;16.80;99.90
23721;DHT22;42950;52.134;5.578;2023-07-13T01:01:54;16.80;99.90
23721;DHT22;42950;52.134;5.578;2023-07-13T01:04:25;16.70;99.90
23721;DHT22;42950;52.134;5.578;2023-07-13T01:06:52;16.70;99.90
23721;DHT22;42950;52.134;5.578;2023-07-13T01:09:19;16.60;99.90
23721;DHT22;42950;52.134;5.578;2023-07-13T01:11:45;16.60;99.90
23721;DHT22;42950;52.134;5.578;2023-07-13T01:14:11;16.60;99.90
23721;DHT22;42950;52.134;5.578;2023-07-13T01:16:39;16.50;99.90
23721;DHT22;42950;52.134;5.578;2023-07-13T01:19:25;16.50;99.90
23721;DHT22;42950;52.134;5.578;2023-07-13T01:21:56;16.50;99.90
23721;DHT22;42950;52.134;5.578;2023-07-13T01:24:23;16.50;99.90
23721;DHT22;42950;52.134;5.578;2023-07-13T01:26:48;16.40;99.90
23721;DHT22;42950;52.134;5.578;2023-07-13T01:29:14;16.40;99.90
23721;DHT22;42950;52.134;5.578;2023-07-13T01:31:40;16.40;99.90
23721;DHT22;42950;52.134;5.578;2023-07-13T01:34:05;16.40;99.90
23721;DHT22;42950;52.134;5.578;2023-07-13T01:36:31;16.30;99.90
23721;DHT22;42950;52.134;5.578;2023-07-13T01:38:57;16.30;99.90
23721;DHT22;42950;52.134;5.578;2023-07-13T01:41:22;16.30;99.90
23721;DHT22;42950;52.134;5.578;2023-07-13T01:43:48;16.30;99.90
23721;DHT22;42950;52.134;5.578;2023-07-13T01:46:14;16.30;99.90
23721;DHT22;42950;52.134;5.578;2023-07-13T01:48:39;16.30;99.90
23721;DHT22;42950;52.134;5.578;2023-07-13T01:51:05;16.20;99.90
23721;DHT22;42950;52.134;5.578;2023-07-13T01:53:30;16.20;99.90
23721;DHT22;42950;52.134;5.578;2023-07-13T01:55:56;16.20;99.90
23721;DHT22;42950;52.134;5.578;2023-07-13T01:58:22;16.20;99.90
23721;DHT22;42950;52.134;5.578;2023-07-13T02:00:51;16.10;99.90
23721;DHT22;42950;52.134;5.578;2023-07-13T02:03:17;16.10;99.90
23721;DHT22;42950;52.134;5.578;2023-07-13T02:05:44;16.00;99.90
23721;DHT22;42950;52.134;5.578;2023-07-13T02:08:10;16.00;99.90
23721;DHT22;42950;52.134;5.578;2023-07-13T02:10:37;16.00;99.90
23721;DHT22;42950;52.134;5.578;2023-07-13T02:13:06;16.00;99.90
23721;DHT22;42950;52.134;5.578;2023-07-13T02:15:31;16.00;99.90
23721;DHT22;42950;52.134;5.578;2023-07-13T02:17:57;15.90;99.90
23721;DHT22;42950;52.134;5.578;2023-07-13T02:20:24;16.00;99.90
23721;DHT22;42950;52.134;5.578;2023-07-13T02:22:53;16.00;99.90
23721;DHT22;42950;52.134;5.578;2023-07-13T02:25:19;15.90;99.90
23721;DHT22;42950;52.134;5.578;2023-07-13T02:27:45;16.00;99.90
23721;DHT22;42950;52.134;5.578;2023-07-13T02:30:11;15.90;99.90
23721;DHT22;42950;52.134;5.578;2023-07-13T02:32:37;15.90;99.90
23721;DHT22;42950;52.134;5.578;2023-07-13T02:35:03;15.90;99.90
23721;DHT22;42950;52.134;5.578;2023-07-13T02:37:29;15.90;99.90
23721;DHT22;42950;52.134;5.578;2023-07-13T02:39:55;15.90;99.90
23721;DHT22;42950;52.134;5.578;2023-07-13T02:42:21;15.80;99.90
23721;DHT22;42950;52.134;5.578;2023-07-13T02:44:46;15.80;99.90
23721;DHT22;42950;52.134;5.578;2023-07-13T02:47:12;15.80;99.90
23721;DHT22;42950;52.134;5.578;2023-07-13T02:49:38;15.80;99.90
23721;DHT22;42950;52.134;5.578;2023-07-13T02:52:04;15.80;99.90
23721;DHT22;42950;52.134;5.578;2023-07-13T02:54:31;15.70;99.90
23721;DHT22;42950;52.134;5.578;2023-07-13T02:56:57;15.70;99.90
23721;DHT22;42950;52.134;5.578;2023-07-13T02:59:23;15.60;99.90
23721;DHT22;42950;52.134;5.578;2023-07-13T03:01:49;15.70;99.90
23721;DHT22;42950;52.134;5.578;2023-07-13T03:04:16;15.70;99.90
23721;DHT22;42950;52.134;5.578;2023-07-13T03:06:45;15.70;99.90
23721;DHT22;42950;52.134;5.578;2023-07-13T03:09:12;15.70;99.90
23721;DHT22;42950;52.134;5.578;2023-07-13T03:11:38;15.70;99.90
23721;DHT22;42950;52.134;5.578;2023-07-13T03:14:04;15.80;99.90
23721;DHT22;42950;52.134;5.578;2023-07-13T03:16:30;15.70;99.90
23721;DHT22;42950;52.134;5.578;2023-07-13T03:18:55;15.60;99.90
23721;DHT22;42950;52.134;5.578;2023-07-13T03:21:21;15.60;99.90
23721;DHT22;42950;52.134;5.578;2023-07-13T03:23:47;15.60;99.90
23721;DHT22;42950;52.134;5.578;2023-07-13T03:26:18;15.50;99.90
23721;DHT22;42950;52.134;5.578;2023-07-13T03:28:44;15.50;99.90
23721;DHT22;42950;52.134;5.578;2023-07-13T03:31:12;15.50;99.90
23721;DHT22;42950;52.134;5.578;2023-07-13T03:33:39;15.50;99.90
23721;DHT22;42950;52.134;5.578;2023-07-13T03:36:07;15.60;99.90
23721;DHT22;42950;52.134;5.578;2023-07-13T03:38:34;15.50;99.90
23721;DHT22;42950;52.134;5.578;2023-07-13T03:41:00;15.60;99.90
23721;DHT22;42950;52.134;5.578;2023-07-13T03:43:26;15.50;99.90
23721;DHT22;42950;52.134;5.578;2023-07-13T03:45:52;15.50;99.90
23721;DHT22;42950;52.134;5.578;2023-07-13T03:48:18;15.50;99.90
23721;DHT22;42950;52.134;5.578;2023-07-13T03:50:43;15.50;99.90
23721;DHT22;42950;52.134;5.578;2023-07-13T03:53:09;15.50;99.90
23721;DHT22;42950;52.134;5.578;2023-07-13T03:55:35;15.50;99.90
23721;DHT22;42950;52.134;5.578;2023-07-13T04:00:50;15.50;99.90
23721;DHT22;42950;52.134;5.578;2023-07-13T04:03:15;15.50;99.90
23721;DHT22;42950;52.134;5.578;2023-07-13T04:05:41;15.50;99.90
23721;DHT22;42950;52.134;5.578;2023-07-13T04:08:07;15.40;99.90
23721;DHT22;42950;52.134;5.578;2023-07-13T04:10:33;15.50;99.90
23721;DHT22;42950;52.134;5.578;2023-07-13T04:12:58;15.50;99.90
23721;DHT22;42950;52.134;5.578;2023-07-13T04:15:24;15.50;99.90
23721;DHT22;42950;52.134;5.578;2023-07-13T04:17:50;15.50;99.90
23721;DHT22;42950;52.134;5.578;2023-07-13T04:20:16;15.50;99.90
23721;DHT22;42950;52.134;5.578;2023-07-13T04:22:41;15.50;99.90
23721;DHT22;42950;52.134;5.578;2023-07-13T04:25:07;15.50;99.90
23721;DHT22;42950;52.134;5.578;2023-07-13T04:27:33;15.50;99.90
23721;DHT22;42950;52.134;5.578;2023-07-13T04:29:59;15.50;99.90
23721;DHT22;42950;52.134;5.578;2023-07-13T04:32:25;15.50;99.90
23721;DHT22;42950;52.134;5.578;2023-07-13T04:34:51;15.50;99.90
23721;DHT22;42950;52.134;5.578;2023-07-13T04:37:19;15.50;99.90
23721;DHT22;42950;52.134;5.578;2023-07-13T04:39:45;15.60;99.90
23721;DHT22;42950;52.134;5.578;2023-07-13T04:42:12;15.60;99.90
23721;DHT22;42950;52.134;5.578;2023-07-13T04:44:38;15.60;99.90
23721;DHT22;42950;52.134;5.578;2023-07-13T04:47:03;15.60;99.90
23721;DHT22;42950;52.134;5.578;2023-07-13T04:49:30;15.60;99.90
23721;DHT22;42950;52.134;5.578;2023-07-13T04:51:56;15.60;99.90
23721;DHT22;42950;52.134;5.578;2023-07-13T04:54:21;15.60;99.90
23721;DHT22;42950;52.134;5.578;2023-07-13T04:56:47;15.50;99.90
23721;DHT22;42950;52.134;5.578;2023-07-13T04:59:14;15.60;99.90
23721;DHT22;42950;52.134;5.578;2023-07-13T05:01:40;15.70;99.90
23721;DHT22;42950;52.134;5.578;2023-07-13T05:04:06;15.60;99.90
23721;DHT22;42950;52.134;5.578;2023-07-13T05:06:32;15.70;99.90
23721;DHT22;42950;52.134;5.578;2023-07-13T05:08:57;15.80;99.90
23721;DHT22;42950;52.134;5.578;2023-07-13T05:11:23;15.80;99.90
23721;DHT22;42950;52.134;5.578;2023-07-13T05:13:50;15.90;99.90
23721;DHT22;42950;52.134;5.578;2023-07-13T05:16:17;16.00;99.90
23721;DHT22;42950;52.134;5.578;2023-07-13T05:18:42;16.00;99.90
23721;DHT22;42950;52.134;5.578;2023-07-13T05:21:09;16.00;99.90
23721;DHT22;42950;52.134;5.578;2023-07-13T05:23:36;16.10;99.90
23721;DHT22;42950;52.134;5.578;2023-07-13T05:26:03;16.10;99.90
23721;DHT22;42950;52.134;5.578;2023-07-13T05:28:30;16.20;99.90
23721;DHT22;42950;52.134;5.578;2023-07-13T05:30:57;16.20;99.90
23721;DHT22;42950;52.134;5.578;2023-07-13T05:33:24;16.30;99.90
23721;DHT22;42950;52.134;5.578;2023-07-13T05:35:50;16.40;99.90
23721;DHT22;42950;52.134;5.578;2023-07-13T05:38:16;16.40;99.90
23721;DHT22;42950;52.134;5.578;2023-07-13T05:40:45;16.50;99.90
23721;DHT22;42950;52.134;5.578;2023-07-13T05:43:11;16.50;99.90
23721;DHT22;42950;52.134;5.578;2023-07-13T05:45:37;16.50;99.90
23721;DHT22;42950;52.134;5.578;2023-07-13T05:48:02;16.60;99.90
23721;DHT22;42950;52.134;5.578;2023-07-13T05:50:29;16.60;99.90
23721;DHT22;42950;52.134;5.578;2023-07-13T05:52:57;16.60;99.90
23721;DHT22;42950;52.134;5.578;2023-07-13T05:55:22;16.60;99.90
23721;DHT22;42950;52.134;5.578;2023-07-13T05:57:48;16.70;99.90
23721;DHT22;42950;52.134;5.578;2023-07-13T06:00:14;16.80;99.90
23721;DHT22;42950;52.134;5.578;2023-07-13T06:02:40;16.90;99.90
23721;DHT22;42950;52.134;5.578;2023-07-13T06:05:06;16.80;99.90
23721;DHT22;42950;52.134;5.578;2023-07-13T06:07:32;16.80;99.90
23721;DHT22;42950;52.134;5.578;2023-07-13T06:09:57;16.90;99.90
23721;DHT22;42950;52.134;5.578;2023-07-13T06:12:25;16.90;99.90
23721;DHT22;42950;52.134;5.578;2023-07-13T06:14:51;17.00;99.90
23721;DHT22;42950;52.134;5.578;2023-07-13T06:17:16;17.00;99.90
23721;DHT22;42950;52.134;5.578;2023-07-13T06:19:44;17.10;99.90
23721;DHT22;42950;52.134;5.578;2023-07-13T06:22:11;17.20;99.90
23721;DHT22;42950;52.134;5.578;2023-07-13T06:24:36;17.30;99.90
23721;DHT22;42950;52.134;5.578;2023-07-13T06:27:02;17.40;99.90
23721;DHT22;42950;52.134;5.578;2023-07-13T06:29:28;17.50;99.90
23721;DHT22;42950;52.134;5.578;2023-07-13T06:31:54;17.60;99.90
23721;DHT22;42950;52.134;5.578;2023-07-13T06:34:20;17.50;99.90
23721;DHT22;42950;52.134;5.578;2023-07-13T06:36:46;17.60;99.90
23721;DHT22;42950;52.134;5.578;2023-07-13T06:39:11;17.70;99.90
23721;DHT22;42950;52.134;5.578;2023-07-13T06:41:37;17.70;99.90
23721;DHT22;42950;52.134;5.578;2023-07-13T06:44:04;17.60;99.90
23721;DHT22;42950;52.134;5.578;2023-07-13T06:46:30;17.50;99.90
23721;DHT22;42950;52.134;5.578;2023-07-13T06:48:56;17.50;99.90
23721;DHT22;42950;52.134;5.578;2023-07-13T06:51:23;17.60;99.90
23721;DHT22;42950;52.134;5.578;2023-07-13T06:53:51;17.70;99.90
23721;DHT22;42950;52.134;5.578;2023-07-13T06:56:16;17.70;99.90
23721;DHT22;42950;52.134;5.578;2023-07-13T06:58:42;17.70;99.90
23721;DHT22;42950;52.134;5.578;2023-07-13T07:01:09;17.80;99.90
23721;DHT22;42950;52.134;5.578;2023-07-13T07:03:36;17.90;99.90
23721;DHT22;42950;52.134;5.578;2023-07-13T07:06:17;17.90;99.90
23721;DHT22;42950;52.134;5.578;2023-07-13T07:08:43;17.90;99.90
23721;DHT22;42950;52.134;5.578;2023-07-13T07:11:17;18.00;99.90
23721;DHT22;42950;52.134;5.578;2023-07-13T07:13:43;18.10;99.90
23721;DHT22;42950;52.134;5.578;2023-07-13T07:16:10;18.20;99.90
23721;DHT22;42950;52.134;5.578;2023-07-13T07:18:36;18.40;99.90
23721;DHT22;42950;52.134;5.578;2023-07-13T07:21:01;18.50;99.90
23721;DHT22;42950;52.134;5.578;2023-07-13T07:23:27;18.50;99.90
23721;DHT22;42950;52.134;5.578;2023-07-13T07:25:53;18.60;99.90
23721;DHT22;42950;52.134;5.578;2023-07-13T07:28:19;18.70;99.90
23721;DHT22;42950;52.134;5.578;2023-07-13T07:30:46;18.60;99.90
23721;DHT22;42950;52.134;5.578;2023-07-13T07:33:12;18.60;99.90
23721;DHT22;42950;52.134;5.578;2023-07-13T07:35:37;18.60;99.90
23721;DHT22;42950;52.134;5.578;2023-07-13T07:38:03;18.60;99.90
23721;DHT22;42950;52.134;5.578;2023-07-13T07:40:29;18.70;99.90
23721;DHT22;42950;52.134;5.578;2023-07-13T07:42:55;18.70;99.90
23721;DHT22;42950;52.134;5.578;2023-07-13T07:45:21;18.80;99.90
23721;DHT22;42950;52.134;5.578;2023-07-13T07:47:47;18.70;99.90
23721;DHT22;42950;52.134;5.578;2023-07-13T07:50:14;18.70;99.90
23721;DHT22;42950;52.134;5.578;2023-07-13T07:52:39;18.90;99.90
23721;DHT22;42950;52.134;5.578;2023-07-13T07:55:06;19.00;99.90
23721;DHT22;42950;52.134;5.578;2023-07-13T07:57:32;19.00;99.90
23721;DHT22;42950;52.134;5.578;2023-07-13T07:59:59;18.90;99.90
23721;DHT22;42950;52.134;5.578;2023-07-13T08:02:25;18.90;99.90
23721;DHT22;42950;52.134;5.578;2023-07-13T08:04:51;19.00;99.90
23721;DHT22;42950;52.134;5.578;2023-07-13T08:07:18;19.00;99.90
23721;DHT22;42950;52.134;5.578;2023-07-13T08:09:44;19.00;99.90
23721;DHT22;42950;52.134;5.578;2023-07-13T08:12:09;19.10;99.90
23721;DHT22;42950;52.134;5.578;2023-07-13T08:14:35;19.10;99.90
23721;DHT22;42950;52.134;5.578;2023-07-13T08:17:01;19.00;99.90
23721;DHT22;42950;52.134;5.578;2023-07-13T08:19:26;19.00;99.90
23721;DHT22;42950;52.134;5.578;2023-07-13T08:21:52;19.00;99.90
23721;DHT22;42950;52.134;5.578;2023-07-13T08:24:18;19.00;99.90
23721;DHT22;42950;52.134;5.578;2023-07-13T08:26:45;19.30;99.90
23721;DHT22;42950;52.134;5.578;2023-07-13T08:29:11;19.40;99.90
23721;DHT22;42950;52.134;5.578;2023-07-13T08:31:37;19.50;99.90
23721;DHT22;42950;52.134;5.578;2023-07-13T08:34:03;19.60;99.90
23721;DHT22;42950;52.134;5.578;2023-07-13T08:36:29;19.60;99.90
23721;DHT22;42950;52.134;5.578;2023-07-13T08:38:56;19.70;99.90
23721;DHT22;42950;52.134;5.578;2023-07-13T08:41:22;19.80;99.90
23721;DHT22;42950;52.134;5.578;2023-07-13T08:43:51;19.90;99.90
23721;DHT22;42950;52.134;5.578;2023-07-13T08:46:25;20.00;99.90
23721;DHT22;42950;52.134;5.578;2023-07-13T08:49:03;20.20;99.90
23721;DHT22;42950;52.134;5.578;2023-07-13T08:52:09;20.20;99.90
23721;DHT22;42950;52.134;5.578;2023-07-13T08:54:41;20.10;99.90
23721;DHT22;42950;52.134;5.578;2023-07-13T08:57:20;20.30;99.90
23721;DHT22;42950;52.134;5.578;2023-07-13T08:59:47;20.40;99.90
23721;DHT22;42950;52.134;5.578;2023-07-13T09:02:39;20.60;99.90
23721;DHT22;42950;52.134;5.578;2023-07-13T09:05:36;20.80;99.90
23721;DHT22;42950;52.134;5.578;2023-07-13T09:11:03;20.80;99.90
23721;DHT22;42950;52.134;5.578;2023-07-13T09:16:36;20.30;99.90
23721;DHT22;42950;52.134;5.578;2023-07-13T09:19:08;20.00;99.90
23721;DHT22;42950;52.134;5.578;2023-07-13T09:21:40;19.90;99.90
23721;DHT22;42950;52.134;5.578;2023-07-13T09:27:02;20.00;99.90
23721;DHT22;42950;52.134;5.578;2023-07-13T09:29:34;20.00;99.90
23721;DHT22;42950;52.134;5.578;2023-07-13T09:32:06;19.80;99.90
23721;DHT22;42950;52.134;5.578;2023-07-13T09:34:35;19.60;99.90
23721;DHT22;42950;52.134;5.578;2023-07-13T09:37:01;19.60;99.90
23721;DHT22;42950;52.134;5.578;2023-07-13T09:39:35;19.60;99.90
23721;DHT22;42950;52.134;5.578;2023-07-13T09:47:19;20.10;99.90
23721;DHT22;42950;52.134;5.578;2023-07-13T09:49:46;20.20;99.90
23721;DHT22;42950;52.134;5.578;2023-07-13T09:52:14;20.30;99.90
23721;DHT22;42950;52.134;5.578;2023-07-13T09:54:44;20.40;99.90
23721;DHT22;42950;52.134;5.578;2023-07-13T09:57:16;20.70;99.90
23721;DHT22;42950;52.134;5.578;2023-07-13T09:59:50;21.20;99.90
23721;DHT22;42950;52.134;5.578;2023-07-13T10:02:30;21.40;99.90
23721;DHT22;42950;52.134;5.578;2023-07-13T10:04:58;21.30;99.90
23721;DHT22;42950;52.134;5.578;2023-07-13T10:07:24;21.00;99.90
23721;DHT22;42950;52.134;5.578;2023-07-13T10:09:54;20.70;99.90
23721;DHT22;42950;52.134;5.578;2023-07-13T10:12:20;20.30;99.90
23721;DHT22;42950;52.134;5.578;2023-07-13T10:14:57;20.00;99.90
23721;DHT22;42950;52.134;5.578;2023-07-13T10:17:31;19.20;99.90
23721;DHT22;42950;52.134;5.578;2023-07-13T10:20:02;18.50;99.90
23721;DHT22;42950;52.134;5.578;2023-07-13T10:23:04;18.30;99.90
23721;DHT22;42950;52.134;5.578;2023-07-13T10:25:38;18.30;99.90
23721;DHT22;42950;52.134;5.578;2023-07-13T10:28:24;18.60;99.90
23721;DHT22;42950;52.134;5.578;2023-07-13T10:30:53;18.70;99.90
23721;DHT22;42950;52.134;5.578;2023-07-13T10:33:20;19.00;99.90
23721;DHT22;42950;52.134;5.578;2023-07-13T10:35:47;19.40;99.90
23721;DHT22;42950;52.134;5.578;2023-07-13T10:38:22;19.80;99.90
23721;DHT22;42950;52.134;5.578;2023-07-13T10:41:10;20.10;99.90
23721;DHT22;42950;52.134;5.578;2023-07-13T10:43:53;20.10;99.90
23721;DHT22;42950;52.134;5.578;2023-07-13T10:46:23;20.10;99.90
23721;DHT22;42950;52.134;5.578;2023-07-13T10:48:54;20.20;99.90
23721;DHT22;42950;52.134;5.578;2023-07-13T10:51:22;20.50;99.90
23721;DHT22;42950;52.134;5.578;2023-07-13T10:54:17;20.70;99.90
23721;DHT22;42950;52.134;5.578;2023-07-13T10:56:44;20.80;99.90
23721;DHT22;42950;52.134;5.578;2023-07-13T10:59:24;20.60;99.90
23721;DHT22;42950;52.134;5.578;2023-07-13T11:02:00;20.60;99.90
23721;DHT22;42950;52.134;5.578;2023-07-13T11:04:48;20.60;99.90
23721;DHT22;42950;52.134;5.578;2023-07-13T11:09:59;20.30;99.90
23721;DHT22;42950;52.134;5.578;2023-07-13T11:15:28;20.90;99.90
23721;DHT22;42950;52.134;5.578;2023-07-13T11:17:55;21.10;99.90
23721;DHT22;42950;52.134;5.578;2023-07-13T11:20:35;21.30;99.90
23721;DHT22;42950;52.134;5.578;2023-07-13T11:25:39;22.00;99.90
23721;DHT22;42950;52.134;5.578;2023-07-13T11:33:24;22.20;99.90
23721;DHT22;42950;52.134;5.578;2023-07-13T11:35:58;22.30;99.90
23721;DHT22;42950;52.134;5.578;2023-07-13T11:38:37;22.40;99.90
23721;DHT22;42950;52.134;5.578;2023-07-13T11:41:31;22.20;99.90
23721;DHT22;42950;52.134;5.578;2023-07-13T11:44:19;22.00;99.90
23721;DHT22;42950;52.134;5.578;2023-07-13T11:46:56;22.20;99.90
23721;DHT22;42950;52.134;5.578;2023-07-13T11:49:28;22.20;99.90
23721;DHT22;42950;52.134;5.578;2023-07-13T11:51:54;22.50;99.90
23721;DHT22;42950;52.134;5.578;2023-07-13T11:56:57;22.30;99.90
23721;DHT22;42950;52.134;5.578;2023-07-13T11:59:26;22.20;99.90
23721;DHT22;42950;52.134;5.578;2023-07-13T12:01:53;21.80;99.90
23721;DHT22;42950;52.134;5.578;2023-07-13T12:04:25;21.40;99.90
23721;DHT22;42950;52.134;5.578;2023-07-13T12:07:04;21.20;99.90
23721;DHT22;42950;52.134;5.578;2023-07-13T12:09:31;21.10;99.90
23721;DHT22;42950;52.134;5.578;2023-07-13T12:11:59;20.90;99.90
23721;DHT22;42950;52.134;5.578;2023-07-13T12:14:26;20.90;99.90
23721;DHT22;42950;52.134;5.578;2023-07-13T12:16:53;20.90;99.90
23721;DHT22;42950;52.134;5.578;2023-07-13T12:19:25;20.90;99.90
23721;DHT22;42950;52.134;5.578;2023-07-13T12:21:54;20.90;99.90
23721;DHT22;42950;52.134;5.578;2023-07-13T12:24:21;20.90;99.90
23721;DHT22;42950;52.134;5.578;2023-07-13T12:30:23;20.90;99.90
23721;DHT22;42950;52.134;5.578;2023-07-13T12:33:15;21.20;99.90
23721;DHT22;42950;52.134;5.578;2023-07-13T12:35:49;21.30;99.90
23721;DHT22;42950;52.134;5.578;2023-07-13T12:38:16;21.40;99.90
23721;DHT22;42950;52.134;5.578;2023-07-13T12:40:42;21.50;99.90
23721;DHT22;42950;52.134;5.578;2023-07-13T12:43:14;21.40;99.90
23721;DHT22;42950;52.134;5.578;2023-07-13T12:48:21;21.50;99.90
23721;DHT22;42950;52.134;5.578;2023-07-13T12:50:48;21.20;99.90
23721;DHT22;42950;52.134;5.578;2023-07-13T12:53:19;21.10;99.90
23721;DHT22;42950;52.134;5.578;2023-07-13T12:55:56;21.30;99.90
23721;DHT22;42950;52.134;5.578;2023-07-13T13:00:58;21.90;99.90
23721;DHT22;42950;52.134;5.578;2023-07-13T13:06:19;22.20;99.90
23721;DHT22;42950;52.134;5.578;2023-07-13T13:08:51;22.50;99.90
23721;DHT22;42950;52.134;5.578;2023-07-13T13:11:18;22.60;99.90
23721;DHT22;42950;52.134;5.578;2023-07-13T13:13:46;22.70;99.90
23721;DHT22;42950;52.134;5.578;2023-07-13T13:16:21;23.00;99.90
23721;DHT22;42950;52.134;5.578;2023-07-13T13:18:49;23.20;99.90
23721;DHT22;42950;52.134;5.578;2023-07-13T13:21:16;23.30;99.90
23721;DHT22;42950;52.134;5.578;2023-07-13T13:23:42;23.50;99.90
23721;DHT22;42950;52.134;5.578;2023-07-13T13:26:11;23.60;99.90
23721;DHT22;42950;52.134;5.578;2023-07-13T13:28:37;23.40;99.90
23721;DHT22;42950;52.134;5.578;2023-07-13T13:31:02;23.20;99.90
23721;DHT22;42950;52.134;5.578;2023-07-13T13:33:28;23.00;99.90
23721;DHT22;42950;52.134;5.578;2023-07-13T13:35:56;22.70;99.90
23721;DHT22;42950;52.134;5.578;2023-07-13T13:38:27;22.60;99.90
23721;DHT22;42950;52.134;5.578;2023-07-13T13:40:53;22.90;99.90
23721;DHT22;42950;52.134;5.578;2023-07-13T13:43:24;23.30;99.90
23721;DHT22;42950;52.134;5.578;2023-07-13T13:45:56;23.20;99.90
23721;DHT22;42950;52.134;5.578;2023-07-13T13:48:33;23.10;99.90
23721;DHT22;42950;52.134;5.578;2023-07-13T13:51:00;22.90;99.90
23721;DHT22;42950;52.134;5.578;2023-07-13T13:53:26;22.80;99.90
23721;DHT22;42950;52.134;5.578;2023-07-13T13:55:52;22.50;99.90
23721;DHT22;42950;52.134;5.578;2023-07-13T13:58:21;22.30;99.90
23721;DHT22;42950;52.134;5.578;2023-07-13T14:00:47;22.30;99.90
23721;DHT22;42950;52.134;5.578;2023-07-13T14:03:16;22.40;99.90
23721;DHT22;42950;52.134;5.578;2023-07-13T14:05:42;22.50;99.90
23721;DHT22;42950;52.134;5.578;2023-07-13T14:08:13;22.80;99.90
23721;DHT22;42950;52.134;5.578;2023-07-13T14:10:40;23.10;99.90
23721;DHT22;42950;52.134;5.578;2023-07-13T14:13:17;23.00;99.90
23721;DHT22;42950;52.134;5.578;2023-07-13T14:15:44;23.20;99.90
23721;DHT22;42950;52.134;5.578;2023-07-13T14:18:10;23.30;99.90
23721;DHT22;42950;52.134;5.578;2023-07-13T14:20:35;23.30;99.90
23721;DHT22;42950;52.134;5.578;2023-07-13T14:23:01;23.30;99.90
23721;DHT22;42950;52.134;5.578;2023-07-13T14:25:27;23.30;99.90
23721;DHT22;42950;52.134;5.578;2023-07-13T14:27:56;23.30;99.90
23721;DHT22;42950;52.134;5.578;2023-07-13T14:30:24;23.30;99.90
23721;DHT22;42950;52.134;5.578;2023-07-13T14:32:50;23.40;99.90
23721;DHT22;42950;52.134;5.578;2023-07-13T14:35:18;23.30;99.90
23721;DHT22;42950;52.134;5.578;2023-07-13T14:37:45;23.20;99.90
23721;DHT22;42950;52.134;5.578;2023-07-13T14:40:29;23.10;99.90
23721;DHT22;42950;52.134;5.578;2023-07-13T14:42:55;23.20;99.90
23721;DHT22;42950;52.134;5.578;2023-07-13T14:45:22;23.00;99.90
23721;DHT22;42950;52.134;5.578;2023-07-13T14:47:48;22.90;99.90
23721;DHT22;42950;52.134;5.578;2023-07-13T14:50:15;22.90;99.90
23721;DHT22;42950;52.134;5.578;2023-07-13T14:52:41;22.80;99.90
23721;DHT22;42950;52.134;5.578;2023-07-13T14:55:14;22.90;99.90
23721;DHT22;42950;52.134;5.578;2023-07-13T14:57:40;23.20;99.90
23721;DHT22;42950;52.134;5.578;2023-07-13T15:02:39;24.10;99.90
23721;DHT22;42950;52.134;5.578;2023-07-13T15:05:13;24.10;99.90
23721;DHT22;42950;52.134;5.578;2023-07-13T15:07:40;24.00;99.90
23721;DHT22;42950;52.134;5.578;2023-07-13T15:10:24;24.10;99.90
23721;DHT22;42950;52.134;5.578;2023-07-13T15:12:56;24.00;99.90
23721;DHT22;42950;52.134;5.578;2023-07-13T15:15:23;24.30;99.90
23721;DHT22;42950;52.134;5.578;2023-07-13T15:17:48;24.50;99.90
23721;DHT22;42950;52.134;5.578;2023-07-13T15:20:32;24.10;99.90
23721;DHT22;42950;52.134;5.578;2023-07-13T15:22:59;23.90;99.90
23721;DHT22;42950;52.134;5.578;2023-07-13T15:25:27;24.20;99.90
23721;DHT22;42950;52.134;5.578;2023-07-13T15:27:54;24.30;99.90
23721;DHT22;42950;52.134;5.578;2023-07-13T15:30:20;24.20;99.90
23721;DHT22;42950;52.134;5.578;2023-07-13T15:32:47;24.30;99.90
23721;DHT22;42950;52.134;5.578;2023-07-13T15:35:21;24.30;99.90
23721;DHT22;42950;52.134;5.578;2023-07-13T15:37:48;24.10;99.90
23721;DHT22;42950;52.134;5.578;2023-07-13T15:40:15;24.00;99.90
23721;DHT22;42950;52.134;5.578;2023-07-13T15:42:42;23.70;99.90
23721;DHT22;42950;52.134;5.578;2023-07-13T15:45:19;23.60;99.90
23721;DHT22;42950;52.134;5.578;2023-07-13T15:47:46;23.60;99.90
23721;DHT22;42950;52.134;5.578;2023-07-13T15:50:17;23.60;99.90
23721;DHT22;42950;52.134;5.578;2023-07-13T15:52:47;23.80;99.90
23721;DHT22;42950;52.134;5.578;2023-07-13T15:55:14;23.90;99.90
23721;DHT22;42950;52.134;5.578;2023-07-13T15:57:43;24.00;99.90
23721;DHT22;42950;52.134;5.578;2023-07-13T16:00:29;24.00;99.90
23721;DHT22;42950;52.134;5.578;2023-07-13T16:02:54;23.80;99.90
23721;DHT22;42950;52.134;5.578;2023-07-13T16:05:21;23.70;99.90
23721;DHT22;42950;52.134;5.578;2023-07-13T16:07:50;24.00;99.90
23721;DHT22;42950;52.134;5.578;2023-07-13T16:10:21;24.10;99.90
23721;DHT22;42950;52.134;5.578;2023-07-13T16:12:47;24.30;99.90
23721;DHT22;42950;52.134;5.578;2023-07-13T16:15:19;24.20;99.90
23721;DHT22;42950;52.134;5.578;2023-07-13T16:17:46;23.90;99.90
23721;DHT22;42950;52.134;5.578;2023-07-13T16:20:13;24.00;99.90
23721;DHT22;42950;52.134;5.578;2023-07-13T16:22:40;24.00;99.90
23721;DHT22;42950;52.134;5.578;2023-07-13T16:25:18;24.20;99.90